Accueil
METAR-TAF:

METAR-TAF

Aéroports :

Aéroport international de Berne

Berne, Suisse

latitude: 46-55N, longitude: 007-30E, altitude: 505 m

Observation

Le bulletin a été fait il y a 21 minutes, à 10:50 UTC
Vent 3 kt de direction variable
Température 10°C
Humidité 57%
Pression 1003 hPa
Visibilité 10 km ou plus
pas de nuages en-dessous de 1500 mètres et pas de cumulonimbus.

METAR: LSZB 291050Z VRB03KT CAVOK 10/02 Q1003 NOSIG

Heure: 12:11 (11:11 UTC)

Prévision

Le bulletin a été fait il y a 2 heures et 46 minutes, à 08:25 UTC
Prévision valable du 29 à 09 UTC au 29 à 18 UTC
Vent 3 kt de direction variable
Visibilité 10 km ou plus
Nuages épars à une hauteur de 10000 ft
Evoluant progressivement
du 29 à 14 UTC au 29 à 17 UTC
Vent 10 kt de ouest/sud-ouest
Nuages fragmentés à une hauteur de 5000 ft
averses de pluie

TAF: LSZB 290825Z 2909/2918 VRB03KT 9999 SCT100 BECMG 2914/2917 24010KT SHRA BKN050

Observations et prévisions météorologiques de plus de 4000 aéroports (messages METAR et TAF).

Les stations disponibles sont représentées par des disques jaunes et rouges sur la carte.

Passer la souris dessus pour voir le nom de la station.

Cliquer dessus pour voir les observations et prévisions météorologiques.

Pour changer de carte: cliquez sur les boutons verts avec une croix noire pour zoomer, sur le bouton vert avec un tiret pour effectuer un zoom arrière, ou sur les flèches vertes pour les cartes adjacentes.


METAR-TAF: